sensor_id;sensor_type;location;lat;lon;timestamp;temperature;humidity
2623;DHT22;1321;48.690;9.022;2023-04-19T00:00:18;11.40;1.00
2623;DHT22;1321;48.690;9.022;2023-04-19T00:02:47;11.40;1.00
2623;DHT22;1321;48.690;9.022;2023-04-19T00:05:15;11.40;1.00
2623;DHT22;1321;48.690;9.022;2023-04-19T00:07:49;11.40;1.00
2623;DHT22;1321;48.690;9.022;2023-04-19T00:10:18;11.40;1.00
2623;DHT22;1321;48.690;9.022;2023-04-19T00:12:46;11.40;1.00
2623;DHT22;1321;48.690;9.022;2023-04-19T00:15:21;11.40;1.00
2623;DHT22;1321;48.690;9.022;2023-04-19T00:17:50;11.40;1.00
2623;DHT22;1321;48.690;9.022;2023-04-19T00:20:19;11.30;1.00
2623;DHT22;1321;48.690;9.022;2023-04-19T00:22:52;11.30;1.00
2623;DHT22;1321;48.690;9.022;2023-04-19T00:25:20;11.30;1.00
2623;DHT22;1321;48.690;9.022;2023-04-19T00:27:48;11.40;1.00
2623;DHT22;1321;48.690;9.022;2023-04-19T00:30:16;11.40;1.00
2623;DHT22;1321;48.690;9.022;2023-04-19T00:32:45;11.30;1.00
2623;DHT22;1321;48.690;9.022;2023-04-19T00:35:13;11.30;1.00
2623;DHT22;1321;48.690;9.022;2023-04-19T00:37:45;11.30;1.00
2623;DHT22;1321;48.690;9.022;2023-04-19T00:40:19;11.30;1.00
2623;DHT22;1321;48.690;9.022;2023-04-19T00:42:53;11.30;1.00
2623;DHT22;1321;48.690;9.022;2023-04-19T00:45:29;11.30;1.00
2623;DHT22;1321;48.690;9.022;2023-04-19T00:47:59;11.30;1.00
2623;DHT22;1321;48.690;9.022;2023-04-19T00:50:28;11.30;12.50
2623;DHT22;1321;48.690;9.022;2023-04-19T00:52:56;11.30;1.00
2623;DHT22;1321;48.690;9.022;2023-04-19T00:55:28;11.30;1.00
2623;DHT22;1321;48.690;9.022;2023-04-19T00:58:07;11.20;1.00
2623;DHT22;1321;48.690;9.022;2023-04-19T01:00:36;11.20;71.00
2623;DHT22;1321;48.690;9.022;2023-04-19T01:03:05;11.20;11.80
2623;DHT22;1321;48.690;9.022;2023-04-19T01:05:47;11.20;66.00
2623;DHT22;1321;48.690;9.022;2023-04-19T01:08:31;11.20;58.20
2623;DHT22;1321;48.690;9.022;2023-04-19T01:11:01;11.30;75.10
2623;DHT22;1321;48.690;9.022;2023-04-19T01:13:29;11.30;70.70
2623;DHT22;1321;48.690;9.022;2023-04-19T01:15:58;11.20;46.70
2623;DHT22;1321;48.690;9.022;2023-04-19T01:18:27;11.20;60.90
2623;DHT22;1321;48.690;9.022;2023-04-19T01:21:01;11.20;99.90
2623;DHT22;1321;48.690;9.022;2023-04-19T01:23:31;11.20;99.90
2623;DHT22;1321;48.690;9.022;2023-04-19T01:26:00;11.20;76.20
2623;DHT22;1321;48.690;9.022;2023-04-19T01:28:28;11.10;97.30
2623;DHT22;1321;48.690;9.022;2023-04-19T01:30:56;11.10;99.90
2623;DHT22;1321;48.690;9.022;2023-04-19T01:33:25;11.10;96.40
2623;DHT22;1321;48.690;9.022;2023-04-19T01:35:53;11.10;99.90
2623;DHT22;1321;48.690;9.022;2023-04-19T01:38:21;11.10;99.90
2623;DHT22;1321;48.690;9.022;2023-04-19T01:40:50;11.10;99.90
2623;DHT22;1321;48.690;9.022;2023-04-19T01:43:19;11.10;99.90
2623;DHT22;1321;48.690;9.022;2023-04-19T01:45:47;11.10;99.90
2623;DHT22;1321;48.690;9.022;2023-04-19T01:48:15;11.10;99.90
2623;DHT22;1321;48.690;9.022;2023-04-19T01:50:44;11.10;99.90
2623;DHT22;1321;48.690;9.022;2023-04-19T01:53:12;11.10;99.90
2623;DHT22;1321;48.690;9.022;2023-04-19T01:55:40;11.00;99.90
2623;DHT22;1321;48.690;9.022;2023-04-19T01:58:10;11.00;99.90
2623;DHT22;1321;48.690;9.022;2023-04-19T02:00:38;11.00;99.90
2623;DHT22;1321;48.690;9.022;2023-04-19T02:03:06;11.00;99.90
2623;DHT22;1321;48.690;9.022;2023-04-19T02:05:35;11.00;99.90
2623;DHT22;1321;48.690;9.022;2023-04-19T02:08:05;11.00;99.90
2623;DHT22;1321;48.690;9.022;2023-04-19T02:10:36;11.00;99.90
2623;DHT22;1321;48.690;9.022;2023-04-19T02:13:04;11.00;99.90
2623;DHT22;1321;48.690;9.022;2023-04-19T02:15:36;11.00;99.90
2623;DHT22;1321;48.690;9.022;2023-04-19T02:18:04;11.00;99.90
2623;DHT22;1321;48.690;9.022;2023-04-19T02:20:34;11.00;99.90
2623;DHT22;1321;48.690;9.022;2023-04-19T02:23:02;11.00;99.90
2623;DHT22;1321;48.690;9.022;2023-04-19T02:25:30;10.90;99.90
2623;DHT22;1321;48.690;9.022;2023-04-19T02:27:58;11.00;99.90
2623;DHT22;1321;48.690;9.022;2023-04-19T02:30:26;11.00;99.90
2623;DHT22;1321;48.690;9.022;2023-04-19T02:32:56;10.90;99.90
2623;DHT22;1321;48.690;9.022;2023-04-19T02:35:24;11.00;99.90
2623;DHT22;1321;48.690;9.022;2023-04-19T02:37:52;11.00;99.90
2623;DHT22;1321;48.690;9.022;2023-04-19T02:40:21;11.00;99.90
2623;DHT22;1321;48.690;9.022;2023-04-19T02:42:49;11.00;99.90
2623;DHT22;1321;48.690;9.022;2023-04-19T02:45:17;10.90;1.00
2623;DHT22;1321;48.690;9.022;2023-04-19T02:47:46;10.90;99.90
2623;DHT22;1321;48.690;9.022;2023-04-19T02:50:16;10.90;1.00
2623;DHT22;1321;48.690;9.022;2023-04-19T02:52:44;10.90;1.00
2623;DHT22;1321;48.690;9.022;2023-04-19T02:55:12;10.90;1.00
2623;DHT22;1321;48.690;9.022;2023-04-19T02:57:41;10.90;1.00
2623;DHT22;1321;48.690;9.022;2023-04-19T03:00:10;10.90;1.00
2623;DHT22;1321;48.690;9.022;2023-04-19T03:02:38;10.80;1.00
2623;DHT22;1321;48.690;9.022;2023-04-19T03:05:07;10.80;1.00
2623;DHT22;1321;48.690;9.022;2023-04-19T03:07:36;10.80;1.00
2623;DHT22;1321;48.690;9.022;2023-04-19T03:10:06;10.80;1.00
2623;DHT22;1321;48.690;9.022;2023-04-19T03:12:34;10.80;1.00
2623;DHT22;1321;48.690;9.022;2023-04-19T03:15:03;10.80;1.00
2623;DHT22;1321;48.690;9.022;2023-04-19T03:17:32;10.80;1.00
2623;DHT22;1321;48.690;9.022;2023-04-19T03:20:00;10.70;1.00
2623;DHT22;1321;48.690;9.022;2023-04-19T03:22:28;10.70;1.00
2623;DHT22;1321;48.690;9.022;2023-04-19T03:24:58;10.70;67.70
2623;DHT22;1321;48.690;9.022;2023-04-19T03:27:26;10.70;1.00
2623;DHT22;1321;48.690;9.022;2023-04-19T03:29:54;10.70;24.70
2623;DHT22;1321;48.690;9.022;2023-04-19T03:32:23;10.70;82.10
2623;DHT22;1321;48.690;9.022;2023-04-19T03:34:51;10.70;99.10
2623;DHT22;1321;48.690;9.022;2023-04-19T03:37:19;10.70;99.90
2623;DHT22;1321;48.690;9.022;2023-04-19T03:39:47;10.70;99.90
2623;DHT22;1321;48.690;9.022;2023-04-19T03:42:17;10.70;99.90
2623;DHT22;1321;48.690;9.022;2023-04-19T03:44:45;10.70;99.90
2623;DHT22;1321;48.690;9.022;2023-04-19T03:47:13;10.70;99.90
2623;DHT22;1321;48.690;9.022;2023-04-19T03:49:41;10.60;99.90
2623;DHT22;1321;48.690;9.022;2023-04-19T03:52:09;10.70;99.90
2623;DHT22;1321;48.690;9.022;2023-04-19T03:54:37;10.70;99.90
2623;DHT22;1321;48.690;9.022;2023-04-19T03:57:06;10.60;99.90
2623;DHT22;1321;48.690;9.022;2023-04-19T03:59:36;10.60;99.90
2623;DHT22;1321;48.690;9.022;2023-04-19T04:02:05;10.60;99.90
2623;DHT22;1321;48.690;9.022;2023-04-19T04:04:33;10.60;99.90
2623;DHT22;1321;48.690;9.022;2023-04-19T04:07:02;10.60;1.00
2623;DHT22;1321;48.690;9.022;2023-04-19T04:09:30;10.50;99.90
2623;DHT22;1321;48.690;9.022;2023-04-19T04:11:58;10.50;1.00
2623;DHT22;1321;48.690;9.022;2023-04-19T04:14:27;10.50;1.00
2623;DHT22;1321;48.690;9.022;2023-04-19T04:16:57;10.60;1.00
2623;DHT22;1321;48.690;9.022;2023-04-19T04:19:25;10.60;99.90
2623;DHT22;1321;48.690;9.022;2023-04-19T04:21:54;10.60;99.90
2623;DHT22;1321;48.690;9.022;2023-04-19T04:24:22;10.50;99.90
2623;DHT22;1321;48.690;9.022;2023-04-19T04:26:50;10.50;1.00
2623;DHT22;1321;48.690;9.022;2023-04-19T04:29:18;10.50;99.90
2623;DHT22;1321;48.690;9.022;2023-04-19T04:31:47;10.50;1.00
2623;DHT22;1321;48.690;9.022;2023-04-19T04:34:23;10.50;1.00
2623;DHT22;1321;48.690;9.022;2023-04-19T04:36:51;10.50;99.90
2623;DHT22;1321;48.690;9.022;2023-04-19T04:39:20;10.50;1.00
2623;DHT22;1321;48.690;9.022;2023-04-19T04:41:49;10.50;1.00
2623;DHT22;1321;48.690;9.022;2023-04-19T04:44:17;10.50;1.00
2623;DHT22;1321;48.690;9.022;2023-04-19T04:46:48;10.50;1.00
2623;DHT22;1321;48.690;9.022;2023-04-19T04:49:16;10.60;1.00
2623;DHT22;1321;48.690;9.022;2023-04-19T04:51:46;10.60;99.90
2623;DHT22;1321;48.690;9.022;2023-04-19T04:54:14;10.60;99.90
2623;DHT22;1321;48.690;9.022;2023-04-19T04:56:43;10.60;99.90
2623;DHT22;1321;48.690;9.022;2023-04-19T04:59:11;10.60;99.90
2623;DHT22;1321;48.690;9.022;2023-04-19T05:01:39;10.60;82.00
2623;DHT22;1321;48.690;9.022;2023-04-19T05:04:08;10.50;99.90
2623;DHT22;1321;48.690;9.022;2023-04-19T05:06:36;10.60;98.10
2623;DHT22;1321;48.690;9.022;2023-04-19T05:09:08;10.60;99.90
2623;DHT22;1321;48.690;9.022;2023-04-19T05:11:36;10.60;99.90
2623;DHT22;1321;48.690;9.022;2023-04-19T05:14:04;10.50;99.90
2623;DHT22;1321;48.690;9.022;2023-04-19T05:16:32;10.50;99.90
2623;DHT22;1321;48.690;9.022;2023-04-19T05:19:00;10.50;99.90
2623;DHT22;1321;48.690;9.022;2023-04-19T05:21:29;10.50;99.90
2623;DHT22;1321;48.690;9.022;2023-04-19T05:23:57;10.60;99.90
2623;DHT22;1321;48.690;9.022;2023-04-19T05:26:27;10.60;99.90
2623;DHT22;1321;48.690;9.022;2023-04-19T05:28:55;10.60;99.90
2623;DHT22;1321;48.690;9.022;2023-04-19T05:31:23;10.60;99.90
2623;DHT22;1321;48.690;9.022;2023-04-19T05:33:51;10.60;99.90
2623;DHT22;1321;48.690;9.022;2023-04-19T05:36:19;10.70;99.90
2623;DHT22;1321;48.690;9.022;2023-04-19T05:38:48;10.70;99.90
2623;DHT22;1321;48.690;9.022;2023-04-19T05:41:16;10.70;1.00
2623;DHT22;1321;48.690;9.022;2023-04-19T05:43:46;10.70;1.00
2623;DHT22;1321;48.690;9.022;2023-04-19T05:46:14;10.70;1.00
2623;DHT22;1321;48.690;9.022;2023-04-19T05:48:43;10.80;1.00
2623;DHT22;1321;48.690;9.022;2023-04-19T05:51:12;10.80;1.00
2623;DHT22;1321;48.690;9.022;2023-04-19T05:53:43;10.90;1.00
2623;DHT22;1321;48.690;9.022;2023-04-19T05:56:12;10.80;99.90
2623;DHT22;1321;48.690;9.022;2023-04-19T05:58:40;10.80;1.00
2623;DHT22;1321;48.690;9.022;2023-04-19T06:01:10;10.80;99.90
2623;DHT22;1321;48.690;9.022;2023-04-19T06:03:38;10.80;99.90
2623;DHT22;1321;48.690;9.022;2023-04-19T06:06:07;10.80;99.90
2623;DHT22;1321;48.690;9.022;2023-04-19T06:08:36;10.80;99.90
2623;DHT22;1321;48.690;9.022;2023-04-19T06:11:04;10.80;99.90
2623;DHT22;1321;48.690;9.022;2023-04-19T06:13:48;10.80;99.90
2623;DHT22;1321;48.690;9.022;2023-04-19T06:16:19;10.80;99.90
2623;DHT22;1321;48.690;9.022;2023-04-19T06:18:47;10.80;99.90
2623;DHT22;1321;48.690;9.022;2023-04-19T06:21:16;10.80;99.90
2623;DHT22;1321;48.690;9.022;2023-04-19T06:23:44;10.90;99.90
2623;DHT22;1321;48.690;9.022;2023-04-19T06:26:13;10.90;99.90
2623;DHT22;1321;48.690;9.022;2023-04-19T06:28:41;11.00;99.90
2623;DHT22;1321;48.690;9.022;2023-04-19T06:31:09;10.90;99.90
2623;DHT22;1321;48.690;9.022;2023-04-19T06:33:39;10.90;99.90
2623;DHT22;1321;48.690;9.022;2023-04-19T06:36:08;11.00;99.90
2623;DHT22;1321;48.690;9.022;2023-04-19T06:38:36;11.00;99.90
2623;DHT22;1321;48.690;9.022;2023-04-19T06:41:04;11.10;99.90
2623;DHT22;1321;48.690;9.022;2023-04-19T06:43:33;11.10;99.90
2623;DHT22;1321;48.690;9.022;2023-04-19T06:46:02;11.10;99.90
2623;DHT22;1321;48.690;9.022;2023-04-19T06:48:32;11.20;99.90
2623;DHT22;1321;48.690;9.022;2023-04-19T06:51:03;11.20;99.90
2623;DHT22;1321;48.690;9.022;2023-04-19T06:53:31;11.30;46.10
2623;DHT22;1321;48.690;9.022;2023-04-19T06:56:01;11.30;1.00
2623;DHT22;1321;48.690;9.022;2023-04-19T06:58:30;11.30;1.00
2623;DHT22;1321;48.690;9.022;2023-04-19T07:01:02;11.30;1.00
2623;DHT22;1321;48.690;9.022;2023-04-19T07:03:31;11.30;1.00
2623;DHT22;1321;48.690;9.022;2023-04-19T07:06:00;11.30;1.00
2623;DHT22;1321;48.690;9.022;2023-04-19T07:08:30;11.40;1.00
2623;DHT22;1321;48.690;9.022;2023-04-19T07:11:15;11.40;1.00
2623;DHT22;1321;48.690;9.022;2023-04-19T07:13:46;11.40;1.00
2623;DHT22;1321;48.690;9.022;2023-04-19T07:16:14;11.40;99.90
2623;DHT22;1321;48.690;9.022;2023-04-19T07:18:42;11.40;99.90
2623;DHT22;1321;48.690;9.022;2023-04-19T07:21:11;11.40;99.90
2623;DHT22;1321;48.690;9.022;2023-04-19T07:23:41;11.50;99.90
2623;DHT22;1321;48.690;9.022;2023-04-19T07:26:09;11.50;99.90
2623;DHT22;1321;48.690;9.022;2023-04-19T07:28:38;11.50;99.90
2623;DHT22;1321;48.690;9.022;2023-04-19T07:31:06;11.60;99.90
2623;DHT22;1321;48.690;9.022;2023-04-19T07:33:35;11.40;99.90
2623;DHT22;1321;48.690;9.022;2023-04-19T07:36:03;11.40;99.90
2623;DHT22;1321;48.690;9.022;2023-04-19T07:38:32;11.50;99.90
2623;DHT22;1321;48.690;9.022;2023-04-19T07:41:02;11.50;99.90
2623;DHT22;1321;48.690;9.022;2023-04-19T07:43:31;11.50;99.90
2623;DHT22;1321;48.690;9.022;2023-04-19T07:45:59;11.60;99.90
2623;DHT22;1321;48.690;9.022;2023-04-19T07:48:27;11.60;99.90
2623;DHT22;1321;48.690;9.022;2023-04-19T07:50:56;11.60;99.90
2623;DHT22;1321;48.690;9.022;2023-04-19T07:53:24;11.70;99.90
2623;DHT22;1321;48.690;9.022;2023-04-19T07:55:53;11.80;99.90
2623;DHT22;1321;48.690;9.022;2023-04-19T07:58:23;11.80;99.90
2623;DHT22;1321;48.690;9.022;2023-04-19T08:00:51;11.90;99.90
2623;DHT22;1321;48.690;9.022;2023-04-19T08:03:19;11.90;96.60
2623;DHT22;1321;48.690;9.022;2023-04-19T08:05:48;11.90;81.30
2623;DHT22;1321;48.690;9.022;2023-04-19T08:08:16;12.00;99.90
2623;DHT22;1321;48.690;9.022;2023-04-19T08:10:45;12.10;99.90
2623;DHT22;1321;48.690;9.022;2023-04-19T08:13:13;12.10;39.70
2623;DHT22;1321;48.690;9.022;2023-04-19T08:15:43;12.10;31.30
2623;DHT22;1321;48.690;9.022;2023-04-19T08:18:14;12.10;1.00
2623;DHT22;1321;48.690;9.022;2023-04-19T08:20:42;12.10;5.00
2623;DHT22;1321;48.690;9.022;2023-04-19T08:23:12;12.20;17.60
2623;DHT22;1321;48.690;9.022;2023-04-19T08:25:50;12.20;1.00
2623;DHT22;1321;48.690;9.022;2023-04-19T08:28:18;12.40;1.00
2623;DHT22;1321;48.690;9.022;2023-04-19T08:30:48;12.50;1.00
2623;DHT22;1321;48.690;9.022;2023-04-19T08:33:16;12.60;1.00
2623;DHT22;1321;48.690;9.022;2023-04-19T08:35:44;12.70;1.00
2623;DHT22;1321;48.690;9.022;2023-04-19T08:38:13;12.80;1.00
2623;DHT22;1321;48.690;9.022;2023-04-19T08:40:46;13.00;1.00
2623;DHT22;1321;48.690;9.022;2023-04-19T08:43:18;13.10;1.00
2623;DHT22;1321;48.690;9.022;2023-04-19T08:45:49;13.20;1.00
2623;DHT22;1321;48.690;9.022;2023-04-19T08:48:17;13.10;1.00
2623;DHT22;1321;48.690;9.022;2023-04-19T08:50:46;13.10;1.00
2623;DHT22;1321;48.690;9.022;2023-04-19T08:53:32;13.30;1.00
2623;DHT22;1321;48.690;9.022;2023-04-19T08:56:02;13.30;1.00
2623;DHT22;1321;48.690;9.022;2023-04-19T08:58:33;13.40;1.00
2623;DHT22;1321;48.690;9.022;2023-04-19T09:01:23;13.50;1.00
2623;DHT22;1321;48.690;9.022;2023-04-19T09:03:54;13.50;1.00
2623;DHT22;1321;48.690;9.022;2023-04-19T09:06:42;13.60;1.00
2623;DHT22;1321;48.690;9.022;2023-04-19T09:09:15;13.70;1.00
2623;DHT22;1321;48.690;9.022;2023-04-19T09:11:46;13.80;1.00
2623;DHT22;1321;48.690;9.022;2023-04-19T09:14:16;13.90;1.00
2623;DHT22;1321;48.690;9.022;2023-04-19T09:16:46;13.90;99.90
2623;DHT22;1321;48.690;9.022;2023-04-19T09:19:17;14.00;99.90
2623;DHT22;1321;48.690;9.022;2023-04-19T09:21:51;14.00;99.90
2623;DHT22;1321;48.690;9.022;2023-04-19T09:24:36;14.10;99.90
2623;DHT22;1321;48.690;9.022;2023-04-19T09:27:26;14.20;99.90
2623;DHT22;1321;48.690;9.022;2023-04-19T09:29:55;14.30;99.90
2623;DHT22;1321;48.690;9.022;2023-04-19T09:32:26;14.30;99.90
2623;DHT22;1321;48.690;9.022;2023-04-19T09:34:56;14.40;99.90
2623;DHT22;1321;48.690;9.022;2023-04-19T09:37:26;14.50;99.90
2623;DHT22;1321;48.690;9.022;2023-04-19T09:39:57;14.50;99.90
2623;DHT22;1321;48.690;9.022;2023-04-19T09:42:44;14.50;99.90
2623;DHT22;1321;48.690;9.022;2023-04-19T09:45:16;14.50;99.90
2623;DHT22;1321;48.690;9.022;2023-04-19T09:47:59;14.70;99.90
2623;DHT22;1321;48.690;9.022;2023-04-19T09:50:28;14.70;99.90
2623;DHT22;1321;48.690;9.022;2023-04-19T09:52:58;14.80;99.90
2623;DHT22;1321;48.690;9.022;2023-04-19T09:55:27;14.80;99.90
2623;DHT22;1321;48.690;9.022;2023-04-19T09:58:04;14.80;99.90
2623;DHT22;1321;48.690;9.022;2023-04-19T10:00:33;14.80;99.90
2623;DHT22;1321;48.690;9.022;2023-04-19T10:03:16;14.90;99.90
2623;DHT22;1321;48.690;9.022;2023-04-19T10:05:45;15.00;99.90
2623;DHT22;1321;48.690;9.022;2023-04-19T10:08:14;15.20;99.90
2623;DHT22;1321;48.690;9.022;2023-04-19T10:10:45;15.30;99.90
2623;DHT22;1321;48.690;9.022;2023-04-19T10:13:20;15.50;99.90
2623;DHT22;1321;48.690;9.022;2023-04-19T10:15:52;15.40;99.90
2623;DHT22;1321;48.690;9.022;2023-04-19T10:18:35;15.30;99.90
2623;DHT22;1321;48.690;9.022;2023-04-19T10:21:06;15.30;99.90
2623;DHT22;1321;48.690;9.022;2023-04-19T10:23:36;15.30;99.90
2623;DHT22;1321;48.690;9.022;2023-04-19T10:26:04;15.40;99.90
2623;DHT22;1321;48.690;9.022;2023-04-19T10:28:35;15.30;99.90
2623;DHT22;1321;48.690;9.022;2023-04-19T10:31:04;15.30;99.90
2623;DHT22;1321;48.690;9.022;2023-04-19T10:33:36;15.20;99.90
2623;DHT22;1321;48.690;9.022;2023-04-19T10:36:08;15.10;99.90
2623;DHT22;1321;48.690;9.022;2023-04-19T10:38:39;15.00;99.90
2623;DHT22;1321;48.690;9.022;2023-04-19T10:41:09;14.90;99.90
2623;DHT22;1321;48.690;9.022;2023-04-19T10:43:45;14.90;99.90
2623;DHT22;1321;48.690;9.022;2023-04-19T10:46:15;14.80;99.90
2623;DHT22;1321;48.690;9.022;2023-04-19T10:48:52;14.80;99.90
2623;DHT22;1321;48.690;9.022;2023-04-19T10:51:22;14.70;99.90
2623;DHT22;1321;48.690;9.022;2023-04-19T10:53:53;14.60;99.90
2623;DHT22;1321;48.690;9.022;2023-04-19T10:56:58;14.70;99.90
2623;DHT22;1321;48.690;9.022;2023-04-19T10:59:31;14.70;99.90
2623;DHT22;1321;48.690;9.022;2023-04-19T11:02:01;14.70;99.90
2623;DHT22;1321;48.690;9.022;2023-04-19T11:05:01;14.70;99.90
2623;DHT22;1321;48.690;9.022;2023-04-19T11:07:40;14.70;99.90
2623;DHT22;1321;48.690;9.022;2023-04-19T11:10:09;14.80;99.90
2623;DHT22;1321;48.690;9.022;2023-04-19T11:12:42;14.80;99.90
2623;DHT22;1321;48.690;9.022;2023-04-19T11:15:11;14.80;99.90
2623;DHT22;1321;48.690;9.022;2023-04-19T11:17:39;14.80;99.90
2623;DHT22;1321;48.690;9.022;2023-04-19T11:20:10;14.80;99.90
2623;DHT22;1321;48.690;9.022;2023-04-19T11:22:41;14.70;99.90
2623;DHT22;1321;48.690;9.022;2023-04-19T11:25:11;14.70;99.90
2623;DHT22;1321;48.690;9.022;2023-04-19T11:27:40;14.50;99.90
2623;DHT22;1321;48.690;9.022;2023-04-19T11:30:10;14.40;99.90
2623;DHT22;1321;48.690;9.022;2023-04-19T11:32:44;14.40;99.90
2623;DHT22;1321;48.690;9.022;2023-04-19T11:35:16;14.30;99.90
2623;DHT22;1321;48.690;9.022;2023-04-19T11:37:45;14.30;99.90
2623;DHT22;1321;48.690;9.022;2023-04-19T11:40:14;14.20;99.90
2623;DHT22;1321;48.690;9.022;2023-04-19T11:42:43;14.20;99.90
2623;DHT22;1321;48.690;9.022;2023-04-19T11:45:22;14.10;99.90
2623;DHT22;1321;48.690;9.022;2023-04-19T11:47:58;14.10;99.90
2623;DHT22;1321;48.690;9.022;2023-04-19T11:50:34;14.00;99.90
2623;DHT22;1321;48.690;9.022;2023-04-19T11:53:13;13.90;99.90
2623;DHT22;1321;48.690;9.022;2023-04-19T11:55:43;13.90;99.90
2623;DHT22;1321;48.690;9.022;2023-04-19T11:58:25;13.90;99.90
2623;DHT22;1321;48.690;9.022;2023-04-19T12:00:55;13.90;99.90
2623;DHT22;1321;48.690;9.022;2023-04-19T12:03:26;13.90;99.90
2623;DHT22;1321;48.690;9.022;2023-04-19T12:05:59;13.80;99.90
2623;DHT22;1321;48.690;9.022;2023-04-19T12:08:30;13.80;99.90
2623;DHT22;1321;48.690;9.022;2023-04-19T12:10:59;13.80;99.90
2623;DHT22;1321;48.690;9.022;2023-04-19T12:13:29;13.60;99.90
2623;DHT22;1321;48.690;9.022;2023-04-19T12:15:58;13.50;99.90
2623;DHT22;1321;48.690;9.022;2023-04-19T12:18:27;13.50;99.90
2623;DHT22;1321;48.690;9.022;2023-04-19T12:21:11;13.40;99.90
2623;DHT22;1321;48.690;9.022;2023-04-19T12:23:40;13.40;99.90
2623;DHT22;1321;48.690;9.022;2023-04-19T12:26:08;13.40;99.90
2623;DHT22;1321;48.690;9.022;2023-04-19T12:28:37;13.40;99.90
2623;DHT22;1321;48.690;9.022;2023-04-19T12:31:05;13.30;99.90
2623;DHT22;1321;48.690;9.022;2023-04-19T12:33:33;13.20;99.90
2623;DHT22;1321;48.690;9.022;2023-04-19T12:36:01;13.20;99.90
2623;DHT22;1321;48.690;9.022;2023-04-19T12:38:31;13.20;99.90
2623;DHT22;1321;48.690;9.022;2023-04-19T12:41:00;13.20;99.90
2623;DHT22;1321;48.690;9.022;2023-04-19T12:43:28;13.10;1.00
2623;DHT22;1321;48.690;9.022;2023-04-19T12:45:57;13.10;1.00
2623;DHT22;1321;48.690;9.022;2023-04-19T12:48:26;13.00;1.00
2623;DHT22;1321;48.690;9.022;2023-04-19T12:50:54;13.00;1.00
2623;DHT22;1321;48.690;9.022;2023-04-19T12:53:23;12.90;1.00
2623;DHT22;1321;48.690;9.022;2023-04-19T12:55:52;12.80;99.90
2623;DHT22;1321;48.690;9.022;2023-04-19T12:58:20;12.80;99.90
2623;DHT22;1321;48.690;9.022;2023-04-19T13:00:48;12.70;1.00
2623;DHT22;1321;48.690;9.022;2023-04-19T13:03:17;12.70;99.90
2623;DHT22;1321;48.690;9.022;2023-04-19T13:05:46;12.60;99.90
2623;DHT22;1321;48.690;9.022;2023-04-19T13:08:14;12.60;99.90
2623;DHT22;1321;48.690;9.022;2023-04-19T13:11:01;12.60;99.90
2623;DHT22;1321;48.690;9.022;2023-04-19T13:13:29;12.50;99.90
2623;DHT22;1321;48.690;9.022;2023-04-19T13:15:58;12.50;99.90
2623;DHT22;1321;48.690;9.022;2023-04-19T13:18:26;12.40;99.90
2623;DHT22;1321;48.690;9.022;2023-04-19T13:20:54;12.30;99.90
2623;DHT22;1321;48.690;9.022;2023-04-19T13:23:23;12.30;1.00
2623;DHT22;1321;48.690;9.022;2023-04-19T13:25:51;12.30;1.00
2623;DHT22;1321;48.690;9.022;2023-04-19T13:28:21;12.20;1.00
2623;DHT22;1321;48.690;9.022;2023-04-19T13:30:49;12.20;1.00
2623;DHT22;1321;48.690;9.022;2023-04-19T13:33:17;12.20;1.00
2623;DHT22;1321;48.690;9.022;2023-04-19T13:35:46;12.10;1.00
2623;DHT22;1321;48.690;9.022;2023-04-19T13:38:15;12.10;1.00
2623;DHT22;1321;48.690;9.022;2023-04-19T13:40:44;12.10;99.90
2623;DHT22;1321;48.690;9.022;2023-04-19T13:43:12;12.00;1.00
2623;DHT22;1321;48.690;9.022;2023-04-19T13:45:42;12.00;1.00
2623;DHT22;1321;48.690;9.022;2023-04-19T13:48:10;12.00;1.00
2623;DHT22;1321;48.690;9.022;2023-04-19T13:50:38;11.90;99.90
2623;DHT22;1321;48.690;9.022;2023-04-19T13:53:07;12.00;99.90
2623;DHT22;1321;48.690;9.022;2023-04-19T13:55:35;12.00;1.00
2623;DHT22;1321;48.690;9.022;2023-04-19T13:58:03;11.90;99.90
2623;DHT22;1321;48.690;9.022;2023-04-19T14:00:32;11.90;1.00
2623;DHT22;1321;48.690;9.022;2023-04-19T14:03:02;11.90;82.50
2623;DHT22;1321;48.690;9.022;2023-04-19T14:05:30;11.90;99.90
2623;DHT22;1321;48.690;9.022;2023-04-19T14:07:59;11.90;1.00
2623;DHT22;1321;48.690;9.022;2023-04-19T14:10:27;12.00;99.90
2623;DHT22;1321;48.690;9.022;2023-04-19T14:12:56;11.90;1.00
2623;DHT22;1321;48.690;9.022;2023-04-19T14:15:24;11.90;99.90
2623;DHT22;1321;48.690;9.022;2023-04-19T14:17:53;11.80;99.90
2623;DHT22;1321;48.690;9.022;2023-04-19T14:20:23;11.80;99.90
2623;DHT22;1321;48.690;9.022;2023-04-19T14:22:51;11.80;99.90
2623;DHT22;1321;48.690;9.022;2023-04-19T14:25:21;11.80;99.90
2623;DHT22;1321;48.690;9.022;2023-04-19T14:27:51;11.80;44.50
2623;DHT22;1321;48.690;9.022;2023-04-19T14:30:19;11.90;1.00
2623;DHT22;1321;48.690;9.022;2023-04-19T14:32:48;11.70;99.90
2623;DHT22;1321;48.690;9.022;2023-04-19T14:35:19;11.80;99.90
2623;DHT22;1321;48.690;9.022;2023-04-19T14:37:52;11.80;99.90
2623;DHT22;1321;48.690;9.022;2023-04-19T14:40:25;11.70;1.00
2623;DHT22;1321;48.690;9.022;2023-04-19T14:42:53;11.60;1.00
2623;DHT22;1321;48.690;9.022;2023-04-19T14:45:21;11.60;1.00
2623;DHT22;1321;48.690;9.022;2023-04-19T14:47:49;11.60;16.20
2623;DHT22;1321;48.690;9.022;2023-04-19T14:50:18;11.60;1.00
2623;DHT22;1321;48.690;9.022;2023-04-19T14:52:48;11.60;1.00
2623;DHT22;1321;48.690;9.022;2023-04-19T14:55:17;11.60;1.00
2623;DHT22;1321;48.690;9.022;2023-04-19T14:57:45;11.60;99.90
2623;DHT22;1321;48.690;9.022;2023-04-19T15:00:14;11.70;1.00
2623;DHT22;1321;48.690;9.022;2023-04-19T15:02:42;11.70;99.90
2623;DHT22;1321;48.690;9.022;2023-04-19T15:05:11;11.70;1.00
2623;DHT22;1321;48.690;9.022;2023-04-19T15:07:39;11.60;1.00
2623;DHT22;1321;48.690;9.022;2023-04-19T15:10:09;11.60;1.00
2623;DHT22;1321;48.690;9.022;2023-04-19T15:12:38;11.60;99.90
2623;DHT22;1321;48.690;9.022;2023-04-19T15:15:07;11.70;99.90
2623;DHT22;1321;48.690;9.022;2023-04-19T15:17:35;11.60;99.90
2623;DHT22;1321;48.690;9.022;2023-04-19T15:20:05;11.60;1.00
2623;DHT22;1321;48.690;9.022;2023-04-19T15:22:33;11.50;99.90
2623;DHT22;1321;48.690;9.022;2023-04-19T15:25:02;11.60;99.90
2623;DHT22;1321;48.690;9.022;2023-04-19T15:27:32;11.60;99.90
2623;DHT22;1321;48.690;9.022;2023-04-19T15:30:00;11.60;99.90
2623;DHT22;1321;48.690;9.022;2023-04-19T15:32:28;11.50;13.90
2623;DHT22;1321;48.690;9.022;2023-04-19T15:35:00;11.60;99.90
2623;DHT22;1321;48.690;9.022;2023-04-19T15:37:28;11.60;99.90
2623;DHT22;1321;48.690;9.022;2023-04-19T15:39:56;11.60;92.50
2623;DHT22;1321;48.690;9.022;2023-04-19T15:42:25;11.60;99.90
2623;DHT22;1321;48.690;9.022;2023-04-19T15:44:54;11.60;11.40
2623;DHT22;1321;48.690;9.022;2023-04-19T15:47:22;11.60;1.00
2623;DHT22;1321;48.690;9.022;2023-04-19T15:49:51;11.60;1.00
2623;DHT22;1321;48.690;9.022;2023-04-19T15:52:19;11.60;29.10
2623;DHT22;1321;48.690;9.022;2023-04-19T15:54:48;11.60;99.90
2623;DHT22;1321;48.690;9.022;2023-04-19T15:57:17;11.60;1.00
2623;DHT22;1321;48.690;9.022;2023-04-19T15:59:46;11.60;13.60
2623;DHT22;1321;48.690;9.022;2023-04-19T16:02:15;11.70;1.00
2623;DHT22;1321;48.690;9.022;2023-04-19T16:04:45;11.80;1.00
2623;DHT22;1321;48.690;9.022;2023-04-19T16:07:14;11.70;1.00
2623;DHT22;1321;48.690;9.022;2023-04-19T16:09:42;11.60;1.00
2623;DHT22;1321;48.690;9.022;2023-04-19T16:12:10;11.60;1.00
2623;DHT22;1321;48.690;9.022;2023-04-19T16:14:38;11.70;1.00
2623;DHT22;1321;48.690;9.022;2023-04-19T16:17:07;11.70;99.90
2623;DHT22;1321;48.690;9.022;2023-04-19T16:19:36;11.60;1.00
2623;DHT22;1321;48.690;9.022;2023-04-19T16:22:05;11.60;1.00
2623;DHT22;1321;48.690;9.022;2023-04-19T16:24:33;11.70;1.00